Portada
METAR-TAF:

METAR-TAF

Aeropuertos :

Aeropuerto de Charlottetown

Charlottetown, Isla del Príncipe Eduardo, Canadá

latitud: 46-17N, longitud: 063-08W, altitud: 48 m

Observación

El informe se hizo hace 26 minutos, a las 04:00 UTC
Viento 7 kt del oeste-noroeste
Temperatura -10°C
Humedad 61%
Presión 1015 hPa
Visibilidad: 24.1 km
Nubes dispersas a una altura de 24000 ft

METAR: CYYG 180400Z 30007KT 15SM SCT240 M10/M16 A2996 RMK CI3 SLP151

Hora: 00:26 (04:26 UTC)

Pronóstico

El informe se hizo hace 4 horas y 48 minutos, a las 23:38 UTC
Pronóstico válido del 18 a las 00 UTC al 18 a las 12 UTC
Viento 5 kt del oeste
Visibilidad: 10 km
Escasas nubes a una altura de 24000 ft
A partir de las 18 a las 0900 UTC
Viento 5 kt del oeste
Visibilidad: 10 km
Escasas nubes a una altura de 16000 ft

TAF: CYYG 172338Z 1800/1812 28005KT P6SM FEW240 FM180900 26005KT P6SM FEW160 RMK NXT FCST BY 180600Z

Observaciones y pronósticos meteorológicos de más de 4000 aeropuertos (mensajes METAR y TAF).

Los puntos amarillos y rojos representan las estaciones disponibles.

Ponga el ratón en el punto deseado para ver el nombre de la estación.

Haga clic para ver las observaciones y los pronósticos meteorológicos.

Para cambiar el mapa : haga clic en los botones verdes con una cruz de color negro para hacer un zoom, en el botón verde con un guión para alejar o en las flechas verdes para mapas adyacentes.


METAR-TAF: